createdAt,value
2019-05-09T00:02:13.859Z,3
2019-05-09T00:07:14.036Z,2.6
2019-05-09T00:12:14.294Z,2.9
2019-05-09T00:17:14.216Z,2.9
2019-05-09T00:22:13.912Z,2.7
2019-05-09T00:27:14.124Z,2.9
2019-05-09T00:32:13.950Z,2.8
2019-05-09T00:37:13.635Z,2.7
2019-05-09T00:42:13.745Z,2.6
2019-05-09T00:47:13.556Z,2.6
2019-05-09T00:52:13.999Z,2.6
2019-05-09T00:57:13.831Z,2.4
2019-05-09T01:02:13.741Z,2.4
2019-05-09T01:07:13.959Z,2.4
2019-05-09T01:12:14.336Z,2.5
2019-05-09T01:17:13.969Z,2.5
2019-05-09T01:22:13.816Z,2.1
2019-05-09T01:27:14.180Z,2.5
2019-05-09T01:32:14.494Z,2.6
2019-05-09T01:37:14.037Z,2.4
2019-05-09T01:42:13.854Z,2.3
2019-05-09T01:47:14.045Z,2.4
2019-05-09T01:52:13.922Z,2.2
2019-05-09T01:57:13.803Z,2.5
2019-05-09T02:02:14.156Z,2.3
2019-05-09T02:07:13.836Z,2.3
2019-05-09T02:12:14.111Z,2.1
2019-05-09T02:17:14.039Z,2.4
2019-05-09T02:22:13.899Z,2.1
2019-05-09T02:27:13.720Z,2
2019-05-09T02:32:14.264Z,2.4
2019-05-09T02:37:13.859Z,2.4
2019-05-09T02:42:14.396Z,2.4
2019-05-09T02:47:13.842Z,2
2019-05-09T02:52:13.534Z,2.1
2019-05-09T02:57:13.160Z,2.3
2019-05-09T03:02:13.021Z,2.2
2019-05-09T03:07:12.716Z,2.3
2019-05-09T03:12:25.886Z,2.5
2019-05-09T03:17:32.315Z,2.8
2019-05-09T03:22:31.618Z,2.9
2019-05-09T03:27:31.470Z,3.1
2019-05-09T03:32:31.599Z,3.8
2019-05-09T03:37:31.608Z,3.7
2019-05-09T03:42:40.888Z,3.4
2019-05-09T03:47:41.461Z,3.3
2019-05-09T03:52:40.504Z,3
2019-05-09T03:57:40.117Z,3.3
2019-05-09T04:02:39.758Z,3.4
2019-05-09T04:07:39.482Z,3.6
2019-05-09T04:12:52.062Z,3.7
2019-05-09T04:17:57.408Z,4.1
2019-05-09T04:22:59.459Z,4.9
2019-05-09T04:27:59.360Z,5.1
2019-05-09T04:32:59.685Z,6.2
2019-05-09T04:38:00.446Z,7.8
2019-05-09T04:43:10.656Z,9
2019-05-09T04:48:23.885Z,10
2019-05-09T04:53:22.927Z,9.8
2019-05-09T04:58:22.516Z,9.3
2019-05-09T05:03:22.189Z,9.4
2019-05-09T05:08:22.018Z,9.7
2019-05-09T05:13:26.571Z,10.7
2019-05-09T05:18:28.506Z,11.4
2019-05-09T05:23:28.045Z,11.1
2019-05-09T05:28:27.793Z,10.1
2019-05-09T05:33:27.832Z,10.8
2019-05-09T05:38:27.928Z,10.9
2019-05-09T05:43:40.290Z,10.1
2019-05-09T05:48:41.645Z,10.1
2019-05-09T05:53:41.799Z,10.6
2019-05-09T05:58:40.687Z,9.9
2019-05-09T06:03:40.566Z,10.3
2019-05-09T06:08:40.834Z,10.9
2019-05-09T06:13:52.455Z,10.6
2019-05-09T06:19:01.298Z,11.4
2019-05-09T06:24:00.663Z,11.1
2019-05-09T06:29:00.582Z,11.3
2019-05-09T06:33:59.776Z,11
2019-05-09T06:38:59.626Z,10.8
2019-05-09T06:44:12.848Z,10.8
2019-05-09T06:49:24.049Z,11.3
2019-05-09T06:54:29.245Z,11.9
2019-05-09T06:59:28.520Z,11.7
2019-05-09T07:04:28.297Z,11.9
2019-05-09T07:09:28.244Z,11.9
2019-05-09T07:14:31.792Z,11.9
2019-05-09T07:19:34.445Z,12.2
2019-05-09T07:24:34.039Z,12
2019-05-09T07:29:33.880Z,12.6
2019-05-09T07:34:33.690Z,12.3
2019-05-09T07:39:33.432Z,12.3
2019-05-09T07:44:46.106Z,12.6
2019-05-09T07:49:49.110Z,13.1
2019-05-09T07:54:49.271Z,13.3
2019-05-09T07:59:49.338Z,14.1
2019-05-09T08:04:49.607Z,14.7
2019-05-09T08:09:49.357Z,15
2019-05-09T08:15:06.569Z,14.5
2019-05-09T08:20:13.871Z,15.6
2019-05-09T08:25:14.110Z,15.7
2019-05-09T08:30:14.114Z,16.3
2019-05-09T08:35:13.721Z,16.1
2019-05-09T08:40:13.722Z,16.4
2019-05-09T08:45:25.181Z,16.8
2019-05-09T08:50:28.978Z,17.5
2019-05-09T08:55:29.117Z,18.1
2019-05-09T09:00:29.087Z,18
2019-05-09T09:05:29.179Z,18.4
2019-05-09T09:10:29.266Z,18.2
2019-05-09T09:15:55.356Z,18.2
2019-05-09T09:21:09.884Z,17.5
2019-05-09T09:26:09.798Z,17.5
2019-05-09T09:31:08.625Z,17.8
2019-05-09T09:36:08.683Z,17.4
2019-05-09T09:41:08.142Z,17.1
2019-05-09T09:46:14.161Z,17.2
2019-05-09T09:51:13.621Z,17.1
2019-05-09T09:56:13.045Z,16.9
2019-05-09T10:01:12.559Z,16.2
2019-05-09T10:06:12.365Z,16.4
2019-05-09T10:11:12.167Z,16.5
2019-05-09T10:16:25.409Z,16.7
2019-05-09T10:21:29.115Z,16.8
2019-05-09T10:26:29.074Z,16.7
2019-05-09T10:31:28.409Z,16
2019-05-09T10:36:27.913Z,15.9
2019-05-09T10:41:27.947Z,15.6
2019-05-09T10:46:33.603Z,15.2
2019-05-09T10:51:53.175Z,15.3
2019-05-09T10:56:52.217Z,14.9
2019-05-09T11:01:51.468Z,14.5
2019-05-09T11:06:50.964Z,14.2
2019-05-09T11:11:50.627Z,14.3
2019-05-09T11:17:05.612Z,14.3
2019-05-09T11:22:13.915Z,14.6
2019-05-09T11:27:13.505Z,14.5
2019-05-09T11:32:12.914Z,14.5
2019-05-09T11:37:12.793Z,14.7
2019-05-09T11:42:12.616Z,14.6
2019-05-09T11:47:28.366Z,14.9
2019-05-09T11:52:40.324Z,14.6
2019-05-09T11:57:40.080Z,15
2019-05-09T12:02:39.381Z,15
2019-05-09T12:07:39.306Z,14.8
2019-05-09T12:12:39.197Z,15.5
2019-05-09T12:17:50.797Z,15.7
2019-05-09T12:22:58.632Z,15.7
2019-05-09T12:27:58.749Z,15.7
2019-05-09T12:32:59.041Z,15.7
2019-05-09T12:37:58.325Z,15.3
2019-05-09T12:42:58.051Z,15.4
2019-05-09T12:48:07.308Z,15.4
2019-05-09T12:53:12.600Z,15.7
2019-05-09T12:58:12.223Z,15.3
2019-05-09T13:03:12.031Z,15.3
2019-05-09T13:08:11.211Z,15.2
2019-05-09T13:13:10.764Z,15.2
2019-05-09T13:18:21.651Z,15
2019-05-09T13:23:23.247Z,15
2019-05-09T13:28:22.813Z,15
2019-05-09T13:33:22.727Z,15.1
2019-05-09T13:38:22.523Z,15.1
2019-05-09T13:43:22.295Z,15.3
2019-05-09T13:48:27.887Z,14.7
2019-05-09T13:53:59.014Z,13.8
2019-05-09T13:58:58.504Z,13.4
2019-05-09T14:03:57.989Z,13.2
2019-05-09T14:08:59.711Z,12.9
2019-05-09T14:13:58.904Z,12.6
2019-05-09T14:19:09.720Z,12.4
2019-05-09T14:24:33.973Z,12.4
2019-05-09T14:29:33.432Z,11.9
2019-05-09T14:34:33.133Z,12.1
2019-05-09T14:39:31.964Z,11.6
2019-05-09T14:44:31.547Z,11.6
2019-05-09T14:49:40.050Z,11.3
2019-05-09T14:54:41.843Z,11.3
2019-05-09T14:59:41.312Z,11.1
2019-05-09T15:04:40.708Z,10.8
2019-05-09T15:09:40.339Z,10.7
2019-05-09T15:14:40.049Z,10.7
2019-05-09T15:19:39.492Z,10.8
2019-05-09T15:24:52.645Z,10.5
2019-05-09T15:29:52.370Z,10.6
2019-05-09T15:34:51.820Z,10.4
2019-05-09T15:39:51.697Z,10.6
2019-05-09T15:44:51.574Z,10.3
2019-05-09T15:49:51.324Z,10.5
2019-05-09T15:54:50.952Z,10.2
2019-05-09T15:59:50.645Z,10.3
2019-05-09T16:04:50.371Z,10.1
2019-05-09T16:09:50.127Z,10.5
2019-05-09T16:14:49.853Z,10.4
2019-05-09T16:19:49.596Z,10.6
2019-05-09T16:24:49.378Z,10.4
2019-05-09T16:29:48.840Z,10.5
2019-05-09T16:34:48.689Z,10.5
2019-05-09T16:39:48.369Z,10.7
2019-05-09T16:44:48.217Z,10.5
2019-05-09T16:49:47.843Z,10.7
2019-05-09T16:54:49.627Z,10.4
2019-05-09T16:59:49.080Z,10.3
2019-05-09T17:04:48.753Z,10.3
2019-05-09T17:09:48.587Z,10.3
2019-05-09T17:14:48.216Z,10
2019-05-09T17:19:48.130Z,9.9
2019-05-09T17:24:48.403Z,10
2019-05-09T17:29:48.185Z,9.9
2019-05-09T17:34:47.681Z,9.8
2019-05-09T17:39:47.232Z,9.6
2019-05-09T17:44:48.744Z,9.6
2019-05-09T17:49:48.433Z,9.6
2019-05-09T17:54:48.473Z,9.5
2019-05-09T17:59:48.894Z,9.7
2019-05-09T18:04:48.474Z,9.6
2019-05-09T18:09:48.303Z,9.6
2019-05-09T18:14:47.982Z,9.8
2019-05-09T18:19:48.009Z,9.9
2019-05-09T18:24:48.340Z,9.9
2019-05-09T18:29:48.056Z,9.9
2019-05-09T18:34:48.573Z,9.7
2019-05-09T18:39:48.483Z,9.5
2019-05-09T18:44:47.760Z,9.4
2019-05-09T18:49:47.356Z,9.4
2019-05-09T18:54:47.005Z,9.3
2019-05-09T18:59:46.443Z,9.4
2019-05-09T19:04:46.856Z,9.4
2019-05-09T19:09:46.590Z,9.1
2019-05-09T19:14:46.291Z,9.1
2019-05-09T19:19:45.947Z,9.1
2019-05-09T19:24:45.819Z,9.1
2019-05-09T19:29:45.654Z,9.3
2019-05-09T19:34:45.416Z,9.1
2019-05-09T19:39:45.031Z,9.2
2019-05-09T19:44:44.906Z,9.2
2019-05-09T19:49:44.482Z,9.1
2019-05-09T19:54:44.188Z,9.1
2019-05-09T19:59:44.049Z,9.1
2019-05-09T20:04:43.796Z,8.9
2019-05-09T20:09:43.419Z,9.1
2019-05-09T20:14:43.104Z,8.8
2019-05-09T20:19:42.916Z,9
2019-05-09T20:24:42.886Z,9
2019-05-09T20:29:42.840Z,9
2019-05-09T20:34:42.463Z,9.1
2019-05-09T20:39:42.156Z,9.1
2019-05-09T20:44:41.681Z,8.9
2019-05-09T20:49:41.535Z,9
2019-05-09T20:54:41.208Z,8.8
2019-05-09T20:59:40.957Z,9
2019-05-09T21:04:40.563Z,9.1
2019-05-09T21:09:40.368Z,9.1
2019-05-09T21:14:40.160Z,9.1
2019-05-09T21:19:39.885Z,9.1
2019-05-09T21:24:39.575Z,8.9
2019-05-09T21:29:39.187Z,9.1
2019-05-09T21:34:38.754Z,8.9
2019-05-09T21:39:38.574Z,9.2
2019-05-09T21:44:38.377Z,9
2019-05-09T21:49:37.660Z,9.1
2019-05-09T21:54:37.397Z,9.1
2019-05-09T21:59:36.364Z,9
2019-05-09T22:04:35.989Z,9
2019-05-09T22:09:35.590Z,9.2
2019-05-09T22:14:35.230Z,9.2
2019-05-09T22:19:34.823Z,9.2
2019-05-09T22:24:34.585Z,9.1
2019-05-09T22:29:34.215Z,9.1
2019-05-09T22:34:33.757Z,8.9
2019-05-09T22:39:33.584Z,9.2
2019-05-09T22:44:33.426Z,9.2
2019-05-09T22:49:33.142Z,9.2
2019-05-09T22:54:32.538Z,9
2019-05-09T22:59:32.364Z,9.3
2019-05-09T23:04:32.071Z,9.3
2019-05-09T23:09:31.695Z,9.3
2019-05-09T23:14:31.242Z,8.9
2019-05-09T23:19:30.750Z,9
2019-05-09T23:24:30.469Z,8.7
2019-05-09T23:29:30.037Z,8.7
2019-05-09T23:34:29.743Z,8.9
2019-05-09T23:39:29.544Z,8.9
2019-05-09T23:44:29.410Z,8.7
2019-05-09T23:49:29.286Z,8.7
2019-05-09T23:54:44.556Z,8.9
2019-05-09T23:59:44.283Z,8.8
